Latest Weather Observations for Wyndham Airport

IDD60801

Issued at 3:31 pm CST Friday 27 May 2016 (issued every 30 minutes, with the page automatically refreshed every 10 minutes)

About weather observations | Map of weather stations | Latest weather observations for NT | Other Formats
Station Details ID: 001006 Name: WYNDHAM AERO Lat: -15.51 Lon: 128.15 Height: 3.8 m
Data from the previous 72 hours. | See also: Recent months at Wyndham Airport
Date/Time
CST
Temp
°C
App
Temp
°C
Dew
Point
Rel
Hum
%
Delta-T
°C
Wind Press
QNH
hPa
Press
MSL
hPa
Rain
since 9 am
mm
Dir
 
Spd
km/h
Gust
km/h
Spd
kts
Gust
kts
27/03:30pm 36.3 33.9 12.5 24 14.4 SE 17 26 9 14 1009.9 1009.9 0.0
27/03:00pm 37.0 36.7 14.3 26 14.1 E 9 17 5 9 1010.3 1010.3 0.0
27/02:30pm 36.8 36.0 14.1 25 14.1 SSE 11 17 6 9 1010.7 1010.7 0.0
27/02:00pm 36.9 35.8 14.2 25 14.1 E 13 24 7 13 1011.0 1011.0 0.0
27/01:30pm 36.9 34.8 14.8 26 13.8 SE 19 26 10 14 1011.6 1011.6 0.0
27/01:00pm 36.3 34.1 14.9 28 13.4 SSE 20 30 11 16 1012.2 1012.2 0.0
27/12:30pm 36.0 35.0 15.7 30 12.8 SSE 15 28 8 15 1012.7 1012.7 0.0
27/12:00pm 35.1 35.5 17.3 34 11.4 SSW 11 20 6 11 1013.4 1013.4 0.0
27/11:30am 34.7 35.1 19.1 39 10.3 SSW 15 22 8 12 1013.9 1013.9 0.0
27/11:00am 32.5 33.8 19.4 46 8.6 SW 11 17 6 9 1014.2 1014.2 0.0
27/10:30am 31.5 33.4 19.8 49 7.7 SW 9 15 5 8 1014.5 1014.5 0.0
27/10:00am 30.4 32.3 19.7 52 7.0 SW 9 13 5 7 1014.6 1014.6 0.0
27/09:30am 29.7 32.2 20.3 57 6.2 SW 7 13 4 7 1014.4 1014.4 0.0
27/09:00am 28.3 30.8 19.8 60 5.5 SW 6 7 3 4 1014.5 1014.5 0.0
27/08:30am 27.8 29.0 19.8 61 5.2 SSW 13 17 7 9 1014.2 1014.2 0.0
27/08:00am 26.3 29.3 19.2 65 4.6 WSW 2 7 1 4 1013.9 1013.9 0.0
27/07:30am 25.4 27.3 18.6 66 4.3 SW 6 7 3 4 1013.5 1013.5 0.0
27/07:00am 24.6 27.5 18.1 67 4.1 CALM 0 0 0 0 1013.2 1013.2 0.0
27/06:30am 25.2 28.2 18.4 66 4.3 CALM 0 0 0 0 1013.1 1013.1 0.0
27/06:00am 25.2 27.7 18.2 65 4.4 WSW 2 6 1 3 1013.0 1013.0 0.0
27/05:30am 25.1 26.5 17.8 64 4.6 WSW 7 9 4 5 1012.9 1012.9 0.0
27/05:00am 24.2 25.0 17.4 65 4.2 NNW 9 11 5 6 1012.6 1012.6 0.0
27/04:30am 24.4 25.9 17.6 66 4.2 NW 6 7 3 4 1012.5 1012.5 0.0
27/04:00am 24.7 26.1 17.4 64 4.5 WNW 6 6 3 3 1012.5 1012.5 0.0
27/03:30am 24.6 25.9 17.1 63 4.6 W 6 6 3 3 1012.5 1012.5 0.0
27/03:00am 24.5 26.8 16.7 61 4.8 CALM 0 0 0 0 1012.6 1012.6 0.0
27/02:30am 24.6 26.3 16.1 59 5.2 WNW 2 6 1 3 1012.9 1012.9 0.0
27/02:00am 25.7 26.7 16.8 58 5.5 W 7 9 4 5 1013.0 1013.0 0.0
27/01:30am 25.1 26.3 16.8 60 5.1 NNW 6 7 3 4 1013.0 1013.0 0.0
27/01:00am 25.6 27.2 17.0 59 5.3 NNE 4 6 2 3 1012.9 1012.9 0.0
27/12:30am 25.4 26.2 16.3 57 5.6 E 7 9 4 5 1013.0 1013.0 0.0
27/12:00am 26.3 26.0 16.5 54 6.0 E 13 15 7 8 1012.9 1012.9 0.0
 
Date/Time
CST
Temp
°C
App
Temp
°C
Dew
Point
Rel
Hum
%
Delta-T
°C
Wind Press
QNH
hPa
Press
MSL
hPa
Rain
since 9 am
mm
Dir
 
Spd
km/h
Gust
km/h
Spd
kts
Gust
kts
26/11:30pm 27.3 27.1 16.6 52 6.6 E 13 15 7 8 1012.8 1012.8 0.0
26/11:00pm 28.7 29.2 16.6 48 7.5 ESE 9 11 5 6 1012.8 1012.8 0.0
26/10:30pm 29.6 30.7 15.7 43 8.6 NE 4 11 2 6 1012.8 1012.8 0.0
26/10:00pm 30.2 31.4 15.9 42 8.9 WNW 4 9 2 5 1012.7 1012.7 0.0
26/09:30pm 29.7 31.0 16.1 43 8.4 ESE 4 6 2 3 1012.6 1012.6 0.0
26/09:00pm 29.9 30.3 16.3 43 8.5 ENE 9 11 5 6 1012.5 1012.5 0.0
26/08:30pm 30.7 30.7 16.3 42 9.0 N 11 17 6 9 1012.4 1012.4 0.0
26/08:00pm 31.2 30.9 16.4 41 9.3 N 13 20 7 11 1011.9 1011.9 0.0
26/07:30pm 31.6 31.2 17.1 41 9.2 NNE 15 22 8 12 1011.6 1011.6 0.0
26/07:00pm 32.5 33.1 15.9 36 10.4 NW 7 9 4 5 1011.2 1011.2 0.0
26/06:30pm 33.5 34.3 16.4 36 10.8 N 7 9 4 5 1011.0 1011.0 0.0
26/06:00pm 34.9 34.9 15.3 31 12.2 N 9 11 5 6 1010.6 1010.6 0.0
26/05:30pm 35.6 35.9 15.9 31 12.5 NNE 9 11 5 6 1010.4 1010.4 0.0
26/05:00pm 35.9 37.2 16.1 30 12.6 ENE 4 11 2 6 1010.3 1010.3 0.0
26/04:30pm 35.9 36.2 16.1 30 12.6 WNW 9 15 5 8 1010.3 1010.3 0.0
26/04:00pm 36.4 37.7 17.0 31 12.5 NE 6 15 3 8 1010.4 1010.4 0.0
26/03:30pm 35.6 35.7 16.4 32 12.2 NW 11 17 6 9 1010.6 1010.6 0.0
26/03:00pm 35.6 36.0 17.3 33 11.8 NW 11 19 6 10 1010.9 1010.9 0.0
26/02:30pm 35.5 37.0 17.7 35 11.5 NNE 6 11 3 6 1011.2 1011.2 0.0
26/02:00pm 34.9 35.7 17.2 35 11.4 W 9 15 5 8 1011.6 1011.6 0.0
26/01:30pm 35.3 35.6 18.0 36 11.2 NNW 13 20 7 11 1012.1 1012.1 0.0
26/01:00pm 34.7 35.8 17.9 37 10.9 ESE 9 13 5 7 1012.7 1012.7 0.0
26/12:30pm 34.3 35.5 18.3 38 10.4 NW 9 13 5 7 1013.3 1013.3 0.0
26/12:00pm 33.3 35.4 19.4 44 9.2 SW 7 15 4 8 1013.8 1013.8 0.0
26/11:30am 32.5 34.6 20.1 48 8.2 SW 9 15 5 8 1014.1 1014.1 0.0
26/11:00am 31.5 33.9 20.8 53 7.1 SSW 9 13 5 7 1014.4 1014.4 0.0
26/10:30am 30.4 32.7 20.6 55 6.5 SW 9 15 5 8 1014.6 1014.6 0.0
26/10:00am 29.4 32.6 20.5 58 5.9 WSW 4 9 2 5 1014.8 1014.8 0.0
26/09:30am 28.7 31.5 20.4 60 5.5 WSW 6 9 3 5 1014.6 1014.6 0.0
26/09:00am 27.7 30.5 20.5 65 4.7 WSW 6 7 3 4 1014.3 1014.3 0.0
26/08:30am 26.5 30.4 20.3 68 4.1 CALM 0 0 0 0 1013.9 1013.9 0.0
26/08:00am 25.2 29.0 20.2 74 3.3 CALM 0 0 0 0 1013.6 1013.6 0.0
26/07:30am 23.7 26.9 18.8 74 3.1 CALM 0 0 0 0 1013.3 1013.3 0.0
26/07:00am 24.2 26.6 18.8 72 3.4 W 4 6 2 3 1013.0 1013.0 0.0
26/06:30am 23.9 25.7 18.3 71 3.5 W 6 9 3 5 1012.8 1012.8 0.0
26/06:00am 23.8 25.6 18.4 72 3.4 NW 6 6 3 3 1012.4 1012.4 0.0
26/05:30am 23.8 25.5 18.4 72 3.4 NNW 7 7 4 4 1012.3 1012.3 0.0
26/05:00am 23.8 25.9 18.2 71 3.5 NNW 4 7 2 4 1012.3 1012.3 0.0
26/04:30am 23.6 26.4 18.0 71 3.5 CALM 0 0 0 0 1012.3 1012.3 0.0
26/04:00am 24.3 26.3 17.8 67 4.1 SW 4 7 2 4 1012.3 1012.3 0.0
26/03:30am 24.2 26.4 17.4 65 4.2 ESE 2 6 1 3 1012.3 1012.3 0.0
26/03:00am 24.4 27.0 17.6 66 4.2 CALM 0 0 0 0 1012.3 1012.3 0.0
26/02:30am 24.7 26.5 18.4 68 4.0 ENE 6 6 3 3 1012.3 1012.3 0.0
26/02:00am 24.4 25.1 17.1 63 4.5 E 9 9 5 5 1012.5 1012.5 0.0
26/01:30am 25.1 26.6 17.6 63 4.7 E 6 7 3 4 1012.5 1012.5 0.0
26/01:00am 25.0 26.1 17.2 62 4.8 E 7 9 4 5 1012.6 1012.6 0.0
26/12:30am 25.4 26.0 16.8 59 5.3 ESE 9 11 5 6 1012.6 1012.6 0.0
26/12:00am 25.2 26.4 15.8 56 5.7 ENE 4 9 2 5 1012.6 1012.6 0.0
 
Date/Time
CST
Temp
°C
App
Temp
°C
Dew
Point
Rel
Hum
%
Delta-T
°C
Wind Press
QNH
hPa
Press
MSL
hPa
Rain
since 9 am
mm
Dir
 
Spd
km/h
Gust
km/h
Spd
kts
Gust
kts
25/11:30pm 26.9 27.6 16.2 52 6.6 SSE 7 11 4 6 1012.7 1012.7 0.0
25/11:00pm 28.1 28.5 16.4 49 7.3 SSW 9 11 5 6 1012.7 1012.7 0.0
25/10:30pm 28.4 29.1 16.0 47 7.7 SW 7 9 4 5 1012.7 1012.7 0.0
25/10:00pm 29.5 31.0 16.7 46 8.0 S 4 7 2 4 1012.5 1012.5 0.0
25/09:30pm 29.5 29.9 16.3 45 8.2 N 9 15 5 8 1012.4 1012.4 0.0
25/09:00pm 29.8 29.6 16.6 45 8.3 N 13 20 7 11 1012.2 1012.2 0.0
25/08:30pm 29.8 29.8 17.3 47 7.9 N 13 19 7 10 1012.0 1012.0 0.0
25/08:00pm 29.9 30.0 18.3 49 7.4 NNW 15 19 8 10 1011.8 1011.8 0.0
25/07:30pm 30.2 30.2 18.0 48 7.8 N 15 19 8 10 1011.5 1011.5 0.0
25/07:00pm 30.5 30.7 17.6 46 8.2 N 13 19 7 10 1011.3 1011.3 0.0
25/06:30pm 31.3 31.5 17.6 44 8.8 NNW 13 17 7 9 1010.9 1010.9 0.0
25/06:00pm 32.5 31.9 17.5 40 9.6 NNW 17 22 9 12 1010.6 1010.6 0.0
25/05:30pm 33.5 32.5 17.6 38 10.2 NNW 19 26 10 14 1010.3 1010.3 0.0
25/05:00pm 33.7 32.5 17.4 37 10.5 NNW 20 26 11 14 1010.0 1010.0 0.0
25/04:30pm 34.4 33.4 18.0 37 10.6 NNW 20 26 11 14 1009.9 1009.9 0.0
25/04:00pm 35.0 34.2 18.1 36 11.0 NNW 19 28 10 15 1009.9 1009.9 0.0
25/03:30pm 35.0 33.9 17.7 36 11.2 NW 20 28 11 15 1009.9 1009.9 0.0
25/03:00pm 35.2 35.7 17.4 34 11.5 NNW 11 20 6 11 1010.0 1010.0 0.0
25/02:30pm 34.7 34.3 16.1 33 11.8 ENE 13 17 7 9 1010.3 1010.3 0.0
25/02:00pm 34.8 34.7 16.1 32 11.8 E 11 17 6 9 1010.6 1010.6 0.0
25/01:30pm 35.2 34.5 16.5 33 11.9 NE 15 24 8 13 1011.0 1011.0 0.0
25/01:00pm 33.9 34.3 16.3 35 11.1 E 9 17 5 9 1011.6 1011.6 0.0
25/12:30pm 34.0 33.1 16.8 35 11.0 NNE 17 30 9 16 1012.2 1012.2 0.0
25/12:00pm 34.3 34.6 17.9 37 10.6 ENE 13 22 7 12 1012.6 1012.6 0.0
25/11:30am 33.3 33.6 17.9 40 9.9 NE 13 20 7 11 1013.0 1013.0 0.0
25/11:00am 32.7 32.5 17.7 40 9.6 NE 15 20 8 11 1013.3 1013.3 0.0
25/10:30am 32.3 32.1 18.5 44 8.9 ENE 17 22 9 12 1013.4 1013.4 0.0
25/10:00am 31.4 34.0 20.4 52 7.3 SE 7 13 4 7 1013.5 1013.5 0.0
25/09:30am 29.6 32.1 20.2 57 6.2 SSE 7 9 4 5 1013.6 1013.6 0.0
25/09:00am 29.0 31.9 20.7 61 5.5 E 6 7 3 4 1013.4 1013.4 0.0
25/08:30am 27.1 31.3 20.9 69 4.1 CALM 0 0 0 0 1013.3 1013.3 0.0
25/08:00am 25.1 28.1 20.1 74 3.2 NE 4 6 2 3 1013.1 1013.1 0.0
25/07:30am 23.7 25.5 18.8 74 3.1 ESE 7 9 4 5 1012.9 1012.9 0.0
25/07:00am 24.2 27.8 19.7 76 2.9 CALM 0 0 0 0 1012.5 1012.5 0.0
25/06:30am 24.0 27.3 19.1 74 3.1 CALM 0 0 0 0 1012.2 1012.2 0.0
25/06:00am 24.4 27.7 19.2 73 3.3 CALM 0 0 0 0 1011.9 1011.9 0.0
25/05:30am 24.3 27.4 18.7 71 3.6 CALM 0 0 0 0 1011.5 1011.5 0.0
25/05:00am 24.4 27.3 18.3 69 3.8 CALM 0 0 0 0 1011.3 1011.3 0.0
25/04:30am 25.4 28.7 19.1 68 4.0 CALM 0 6 0 3 1011.3 1011.3 0.0
25/04:00am 25.0 26.8 18.4 66 4.2 NW 6 7 3 4 1011.3 1011.3 0.0
25/03:30am 25.0 26.7 18.4 66 4.2 NW 7 9 4 5 1011.3 1011.3 0.0
25/03:00am 25.5 27.3 18.2 64 4.6 WNW 6 7 3 4 1011.5 1011.5 0.0
25/02:30am 25.6 28.5 18.3 64 4.6 CALM 0 0 0 0 1011.6 1011.6 0.0
25/02:00am 25.2 28.0 17.9 64 4.6 CALM 0 0 0 0 1011.8 1011.8 0.0
25/01:30am 25.6 28.3 17.8 62 4.9 CALM 0 0 0 0 1011.9 1011.9 0.0
25/01:00am 25.4 27.9 17.3 61 5.0 CALM 0 0 0 0 1011.9 1011.9 0.0
25/12:30am 25.9 28.5 17.5 59 5.3 CALM 0 4 0 2 1012.0 1012.0 0.0
25/12:00am 26.6 29.2 17.4 57 5.8 CALM 0 0 0 0 1012.2 1012.2 0.0
 
Date/Time
CST
Temp
°C
App
Temp
°C
Dew
Point
Rel
Hum
%
Delta-T
°C
Wind Press
QNH
hPa
Press
MSL
hPa
Rain
since 9 am
mm
Dir
 
Spd
km/h
Gust
km/h
Spd
kts
Gust
kts
24/11:30pm 27.1 27.7 17.6 56 6.0 ESE 11 11 6 6 1012.3 1012.3 0.0
24/11:00pm 26.9 27.7 17.4 56 6.0 ESE 9 11 5 6 1012.4 1012.4 0.0
24/10:30pm 27.3 28.1 17.2 54 6.3 ESE 9 11 5 6 1012.6 1012.6 0.0
24/10:00pm 28.6 31.1 17.2 50 7.2 CALM 0 0 0 0 1012.5 1012.5 0.0
24/09:30pm 29.1 29.9 17.3 49 7.4 N 9 11 5 6 1012.4 1012.4 0.0
24/09:00pm 29.8 32.4 17.6 48 7.7 CALM 0 0 0 0 1012.2 1012.2 0.0
24/08:30pm 30.1 31.2 17.2 46 8.2 ENE 7 9 4 5 1011.9 1011.9 0.0
24/08:00pm 30.8 32.1 17.5 45 8.5 ESE 7 15 4 8 1011.6 1011.6 0.0
24/07:30pm 31.0 32.1 17.0 43 8.9 NW 7 9 4 5 1011.1 1011.1 0.0
24/07:00pm 31.2 31.8 16.8 42 9.1 N 9 13 5 7 1010.8 1010.8 0.0
24/06:30pm 32.8 33.3 16.6 38 10.3 NNE 9 11 5 6 1010.5 1010.5 0.0
24/06:00pm 34.3 34.8 16.6 34 11.2 NNE 9 11 5 6 1010.2 1010.2 0.0
24/05:30pm 34.6 34.3 16.4 33 11.6 ENE 13 19 7 10 1010.1 1010.1 0.0

Other Formats:

Comma delimited format used in spreadsheet applications
http://www.bom.gov.au/fwo/IDD60801/IDD60801.95214.axf

JavaScript Object Notation format (JSON) in row-major order
http://www.bom.gov.au/fwo/IDD60801/IDD60801.95214.json